sensor_id;sensor_type;location;lat;lon;timestamp;P1;durP1;ratioP1;P2;durP2;ratioP2
48526;SDS011;34317;51.660;5.824;2023-07-13T00:01:55;9.80;;;2.40;;
48526;SDS011;34317;51.660;5.824;2023-07-13T00:04:23;5.05;;;2.00;;
48526;SDS011;34317;51.660;5.824;2023-07-13T00:06:52;5.95;;;2.05;;
48526;SDS011;34317;51.660;5.824;2023-07-13T00:09:20;6.28;;;1.80;;
48526;SDS011;34317;51.660;5.824;2023-07-13T00:11:53;5.28;;;2.20;;
48526;SDS011;34317;51.660;5.824;2023-07-13T00:14:23;9.05;;;2.30;;
48526;SDS011;34317;51.660;5.824;2023-07-13T00:16:52;4.43;;;1.80;;
48526;SDS011;34317;51.660;5.824;2023-07-13T00:19:20;3.85;;;2.00;;
48526;SDS011;34317;51.660;5.824;2023-07-13T00:21:47;8.38;;;2.00;;
48526;SDS011;34317;51.660;5.824;2023-07-13T00:24:15;5.20;;;1.90;;
48526;SDS011;34317;51.660;5.824;2023-07-13T00:26:49;5.43;;;1.90;;
48526;SDS011;34317;51.660;5.824;2023-07-13T00:29:16;5.78;;;1.92;;
48526;SDS011;34317;51.660;5.824;2023-07-13T00:31:43;4.35;;;1.90;;
48526;SDS011;34317;51.660;5.824;2023-07-13T00:34:11;4.78;;;1.80;;
48526;SDS011;34317;51.660;5.824;2023-07-13T00:36:38;5.22;;;1.80;;
48526;SDS011;34317;51.660;5.824;2023-07-13T00:39:05;6.38;;;2.10;;
48526;SDS011;34317;51.660;5.824;2023-07-13T00:41:33;5.30;;;2.00;;
48526;SDS011;34317;51.660;5.824;2023-07-13T00:44:00;5.25;;;1.88;;
48526;SDS011;34317;51.660;5.824;2023-07-13T00:46:32;4.85;;;1.85;;
48526;SDS011;34317;51.660;5.824;2023-07-13T00:49:05;6.10;;;1.97;;
48526;SDS011;34317;51.660;5.824;2023-07-13T00:51:39;6.00;;;2.17;;
48526;SDS011;34317;51.660;5.824;2023-07-13T00:54:10;6.10;;;1.90;;
48526;SDS011;34317;51.660;5.824;2023-07-13T00:56:40;7.47;;;2.10;;
48526;SDS011;34317;51.660;5.824;2023-07-13T00:59:10;5.43;;;1.88;;
48526;SDS011;34317;51.660;5.824;2023-07-13T01:01:39;6.05;;;2.20;;
48526;SDS011;34317;51.660;5.824;2023-07-13T01:04:06;5.15;;;1.90;;
48526;SDS011;34317;51.660;5.824;2023-07-13T01:06:35;5.57;;;1.85;;
48526;SDS011;34317;51.660;5.824;2023-07-13T01:09:04;4.63;;;2.20;;
48526;SDS011;34317;51.660;5.824;2023-07-13T01:11:34;7.40;;;2.00;;
48526;SDS011;34317;51.660;5.824;2023-07-13T01:14:02;4.88;;;2.00;;
48526;SDS011;34317;51.660;5.824;2023-07-13T01:16:32;5.32;;;1.77;;
48526;SDS011;34317;51.660;5.824;2023-07-13T01:19:00;5.38;;;1.90;;
48526;SDS011;34317;51.660;5.824;2023-07-13T01:21:32;4.07;;;2.03;;
48526;SDS011;34317;51.660;5.824;2023-07-13T01:24:00;3.13;;;1.85;;
48526;SDS011;34317;51.660;5.824;2023-07-13T01:26:27;3.92;;;1.77;;
48526;SDS011;34317;51.660;5.824;2023-07-13T01:28:54;5.20;;;1.88;;
48526;SDS011;34317;51.660;5.824;2023-07-13T01:31:23;5.43;;;2.00;;
48526;SDS011;34317;51.660;5.824;2023-07-13T01:33:51;8.52;;;1.80;;
48526;SDS011;34317;51.660;5.824;2023-07-13T01:36:20;6.57;;;1.95;;
48526;SDS011;34317;51.660;5.824;2023-07-13T01:38:48;5.60;;;1.92;;
48526;SDS011;34317;51.660;5.824;2023-07-13T01:41:15;4.55;;;1.98;;
48526;SDS011;34317;51.660;5.824;2023-07-13T01:43:42;4.30;;;1.83;;
48526;SDS011;34317;51.660;5.824;2023-07-13T01:46:10;7.18;;;1.90;;
48526;SDS011;34317;51.660;5.824;2023-07-13T01:48:49;5.60;;;1.80;;
48526;SDS011;34317;51.660;5.824;2023-07-13T01:51:18;6.70;;;2.20;;
48526;SDS011;34317;51.660;5.824;2023-07-13T01:53:46;4.47;;;2.25;;
48526;SDS011;34317;51.660;5.824;2023-07-13T01:56:13;4.80;;;1.80;;
48526;SDS011;34317;51.660;5.824;2023-07-13T01:58:40;5.05;;;1.90;;
48526;SDS011;34317;51.660;5.824;2023-07-13T02:01:08;6.15;;;1.95;;
48526;SDS011;34317;51.660;5.824;2023-07-13T02:03:35;5.10;;;1.90;;
48526;SDS011;34317;51.660;5.824;2023-07-13T02:06:02;6.28;;;1.85;;
48526;SDS011;34317;51.660;5.824;2023-07-13T02:08:30;6.65;;;2.20;;
48526;SDS011;34317;51.660;5.824;2023-07-13T02:10:58;6.25;;;2.38;;
48526;SDS011;34317;51.660;5.824;2023-07-13T02:13:26;7.35;;;2.45;;
48526;SDS011;34317;51.660;5.824;2023-07-13T02:15:54;5.45;;;2.38;;
48526;SDS011;34317;51.660;5.824;2023-07-13T02:18:21;4.55;;;2.35;;
48526;SDS011;34317;51.660;5.824;2023-07-13T02:20:48;6.03;;;2.60;;
48526;SDS011;34317;51.660;5.824;2023-07-13T02:23:15;6.47;;;3.00;;
48526;SDS011;34317;51.660;5.824;2023-07-13T02:25:43;5.00;;;3.00;;
48526;SDS011;34317;51.660;5.824;2023-07-13T02:28:10;7.80;;;3.40;;
48526;SDS011;34317;51.660;5.824;2023-07-13T02:30:37;8.40;;;3.03;;
48526;SDS011;34317;51.660;5.824;2023-07-13T02:33:05;8.27;;;3.38;;
48526;SDS011;34317;51.660;5.824;2023-07-13T02:35:32;5.80;;;2.80;;
48526;SDS011;34317;51.660;5.824;2023-07-13T02:38:00;7.95;;;2.92;;
48526;SDS011;34317;51.660;5.824;2023-07-13T02:40:27;7.53;;;3.20;;
48526;SDS011;34317;51.660;5.824;2023-07-13T02:42:54;7.30;;;3.00;;
48526;SDS011;34317;51.660;5.824;2023-07-13T02:45:21;9.25;;;2.90;;
48526;SDS011;34317;51.660;5.824;2023-07-13T02:47:48;7.65;;;2.92;;
48526;SDS011;34317;51.660;5.824;2023-07-13T02:50:17;5.30;;;2.67;;
48526;SDS011;34317;51.660;5.824;2023-07-13T02:52:44;7.55;;;2.20;;
48526;SDS011;34317;51.660;5.824;2023-07-13T02:55:11;6.25;;;2.58;;
48526;SDS011;34317;51.660;5.824;2023-07-13T02:57:39;5.90;;;2.38;;
48526;SDS011;34317;51.660;5.824;2023-07-13T03:00:06;6.85;;;2.33;;
48526;SDS011;34317;51.660;5.824;2023-07-13T03:02:34;5.72;;;2.20;;
48526;SDS011;34317;51.660;5.824;2023-07-13T03:05:02;8.95;;;2.65;;
48526;SDS011;34317;51.660;5.824;2023-07-13T03:07:31;6.07;;;2.35;;
48526;SDS011;34317;51.660;5.824;2023-07-13T03:09:59;10.73;;;3.17;;
48526;SDS011;34317;51.660;5.824;2023-07-13T03:12:36;9.43;;;2.40;;
48526;SDS011;34317;51.660;5.824;2023-07-13T03:15:08;6.13;;;2.40;;
48526;SDS011;34317;51.660;5.824;2023-07-13T03:17:39;6.63;;;2.55;;
48526;SDS011;34317;51.660;5.824;2023-07-13T03:20:08;6.68;;;2.65;;
48526;SDS011;34317;51.660;5.824;2023-07-13T03:22:35;5.25;;;2.33;;
48526;SDS011;34317;51.660;5.824;2023-07-13T03:25:04;5.97;;;2.50;;
48526;SDS011;34317;51.660;5.824;2023-07-13T03:27:32;7.82;;;2.60;;
48526;SDS011;34317;51.660;5.824;2023-07-13T03:29:59;6.78;;;2.50;;
48526;SDS011;34317;51.660;5.824;2023-07-13T03:32:26;5.05;;;2.50;;
48526;SDS011;34317;51.660;5.824;2023-07-13T03:34:53;8.23;;;2.42;;
48526;SDS011;34317;51.660;5.824;2023-07-13T03:37:21;4.72;;;2.00;;
48526;SDS011;34317;51.660;5.824;2023-07-13T03:39:48;6.85;;;2.00;;
48526;SDS011;34317;51.660;5.824;2023-07-13T03:42:18;8.00;;;2.13;;
48526;SDS011;34317;51.660;5.824;2023-07-13T03:44:45;8.18;;;2.70;;
48526;SDS011;34317;51.660;5.824;2023-07-13T03:47:19;6.15;;;2.40;;
48526;SDS011;34317;51.660;5.824;2023-07-13T03:49:47;6.95;;;2.40;;
48526;SDS011;34317;51.660;5.824;2023-07-13T03:52:14;7.15;;;2.40;;
48526;SDS011;34317;51.660;5.824;2023-07-13T03:54:41;8.30;;;2.45;;
48526;SDS011;34317;51.660;5.824;2023-07-13T03:57:09;7.45;;;2.45;;
48526;SDS011;34317;51.660;5.824;2023-07-13T03:59:36;6.65;;;1.80;;
48526;SDS011;34317;51.660;5.824;2023-07-13T04:02:04;5.60;;;2.65;;
48526;SDS011;34317;51.660;5.824;2023-07-13T04:04:33;10.20;;;2.33;;
48526;SDS011;34317;51.660;5.824;2023-07-13T04:07:00;7.50;;;2.38;;
48526;SDS011;34317;51.660;5.824;2023-07-13T04:09:28;7.22;;;2.10;;
48526;SDS011;34317;51.660;5.824;2023-07-13T04:11:55;5.80;;;2.33;;
48526;SDS011;34317;51.660;5.824;2023-07-13T04:14:22;8.40;;;2.42;;
48526;SDS011;34317;51.660;5.824;2023-07-13T04:16:49;5.28;;;2.40;;
48526;SDS011;34317;51.660;5.824;2023-07-13T04:19:16;7.68;;;2.50;;
48526;SDS011;34317;51.660;5.824;2023-07-13T04:21:44;6.93;;;2.40;;
48526;SDS011;34317;51.660;5.824;2023-07-13T04:24:12;6.35;;;2.63;;
48526;SDS011;34317;51.660;5.824;2023-07-13T04:26:39;5.32;;;2.30;;
48526;SDS011;34317;51.660;5.824;2023-07-13T04:29:07;7.03;;;2.58;;
48526;SDS011;34317;51.660;5.824;2023-07-13T04:31:34;6.70;;;2.33;;
48526;SDS011;34317;51.660;5.824;2023-07-13T04:34:01;7.95;;;2.58;;
48526;SDS011;34317;51.660;5.824;2023-07-13T04:36:30;7.43;;;2.63;;
48526;SDS011;34317;51.660;5.824;2023-07-13T04:38:57;7.63;;;2.85;;
48526;SDS011;34317;51.660;5.824;2023-07-13T04:41:24;7.93;;;2.72;;
48526;SDS011;34317;51.660;5.824;2023-07-13T04:43:51;7.25;;;2.80;;
48526;SDS011;34317;51.660;5.824;2023-07-13T04:46:20;7.93;;;3.00;;
48526;SDS011;34317;51.660;5.824;2023-07-13T04:48:48;9.88;;;3.17;;
48526;SDS011;34317;51.660;5.824;2023-07-13T04:51:16;8.13;;;3.03;;
48526;SDS011;34317;51.660;5.824;2023-07-13T04:53:43;8.57;;;2.85;;
48526;SDS011;34317;51.660;5.824;2023-07-13T04:56:10;8.50;;;3.00;;
48526;SDS011;34317;51.660;5.824;2023-07-13T04:58:38;6.13;;;3.13;;
48526;SDS011;34317;51.660;5.824;2023-07-13T05:01:07;7.95;;;3.08;;
48526;SDS011;34317;51.660;5.824;2023-07-13T05:03:36;9.60;;;3.45;;
48526;SDS011;34317;51.660;5.824;2023-07-13T05:06:05;8.68;;;3.45;;
48526;SDS011;34317;51.660;5.824;2023-07-13T05:08:36;8.35;;;3.20;;
48526;SDS011;34317;51.660;5.824;2023-07-13T05:11:04;9.00;;;3.30;;
48526;SDS011;34317;51.660;5.824;2023-07-13T05:13:32;10.82;;;3.70;;
48526;SDS011;34317;51.660;5.824;2023-07-13T05:16:00;8.98;;;3.75;;
48526;SDS011;34317;51.660;5.824;2023-07-13T05:18:30;11.07;;;4.45;;
48526;SDS011;34317;51.660;5.824;2023-07-13T05:20:58;15.60;;;5.07;;
48526;SDS011;34317;51.660;5.824;2023-07-13T05:23:33;12.70;;;5.10;;
48526;SDS011;34317;51.660;5.824;2023-07-13T05:26:02;12.50;;;5.35;;
48526;SDS011;34317;51.660;5.824;2023-07-13T05:28:34;14.15;;;5.30;;
48526;SDS011;34317;51.660;5.824;2023-07-13T05:31:01;15.27;;;5.90;;
48526;SDS011;34317;51.660;5.824;2023-07-13T05:33:28;19.75;;;7.28;;
48526;SDS011;34317;51.660;5.824;2023-07-13T05:35:56;24.23;;;7.22;;
48526;SDS011;34317;51.660;5.824;2023-07-13T05:38:23;17.92;;;7.75;;
48526;SDS011;34317;51.660;5.824;2023-07-13T05:40:53;18.38;;;7.22;;
48526;SDS011;34317;51.660;5.824;2023-07-13T05:43:22;20.08;;;8.25;;
48526;SDS011;34317;51.660;5.824;2023-07-13T05:45:52;17.52;;;7.63;;
48526;SDS011;34317;51.660;5.824;2023-07-13T05:48:20;18.98;;;8.27;;
48526;SDS011;34317;51.660;5.824;2023-07-13T05:50:47;20.30;;;8.95;;
48526;SDS011;34317;51.660;5.824;2023-07-13T05:53:15;21.67;;;9.55;;
48526;SDS011;34317;51.660;5.824;2023-07-13T05:55:43;21.70;;;8.93;;
48526;SDS011;34317;51.660;5.824;2023-07-13T05:58:11;21.45;;;9.82;;
48526;SDS011;34317;51.660;5.824;2023-07-13T06:00:38;25.38;;;10.77;;
48526;SDS011;34317;51.660;5.824;2023-07-13T06:03:06;22.92;;;9.88;;
48526;SDS011;34317;51.660;5.824;2023-07-13T06:05:34;25.67;;;10.40;;
48526;SDS011;34317;51.660;5.824;2023-07-13T06:08:03;25.10;;;10.77;;
48526;SDS011;34317;51.660;5.824;2023-07-13T06:10:33;22.95;;;10.82;;
48526;SDS011;34317;51.660;5.824;2023-07-13T06:13:01;22.60;;;11.10;;
48526;SDS011;34317;51.660;5.824;2023-07-13T06:15:30;21.02;;;10.18;;
48526;SDS011;34317;51.660;5.824;2023-07-13T06:17:57;19.13;;;10.05;;
48526;SDS011;34317;51.660;5.824;2023-07-13T06:20:24;19.85;;;9.98;;
48526;SDS011;34317;51.660;5.824;2023-07-13T06:22:51;22.48;;;10.32;;
48526;SDS011;34317;51.660;5.824;2023-07-13T06:25:19;19.05;;;9.73;;
48526;SDS011;34317;51.660;5.824;2023-07-13T06:27:46;23.65;;;10.27;;
48526;SDS011;34317;51.660;5.824;2023-07-13T06:30:13;20.75;;;9.30;;
48526;SDS011;34317;51.660;5.824;2023-07-13T06:32:40;19.27;;;9.50;;
48526;SDS011;34317;51.660;5.824;2023-07-13T06:35:08;21.65;;;9.18;;
48526;SDS011;34317;51.660;5.824;2023-07-13T06:37:35;18.75;;;9.15;;
48526;SDS011;34317;51.660;5.824;2023-07-13T06:40:02;22.35;;;9.43;;
48526;SDS011;34317;51.660;5.824;2023-07-13T06:42:30;21.95;;;9.23;;
48526;SDS011;34317;51.660;5.824;2023-07-13T06:44:57;21.55;;;9.07;;
48526;SDS011;34317;51.660;5.824;2023-07-13T06:47:24;18.45;;;8.55;;
48526;SDS011;34317;51.660;5.824;2023-07-13T06:49:52;19.40;;;9.20;;
48526;SDS011;34317;51.660;5.824;2023-07-13T06:52:19;17.90;;;9.30;;
48526;SDS011;34317;51.660;5.824;2023-07-13T06:54:46;20.90;;;9.35;;
48526;SDS011;34317;51.660;5.824;2023-07-13T06:57:13;20.92;;;9.60;;
48526;SDS011;34317;51.660;5.824;2023-07-13T06:59:41;25.35;;;9.80;;
48526;SDS011;34317;51.660;5.824;2023-07-13T07:02:09;22.30;;;9.95;;
48526;SDS011;34317;51.660;5.824;2023-07-13T07:04:38;21.02;;;10.00;;
48526;SDS011;34317;51.660;5.824;2023-07-13T07:07:05;21.75;;;10.57;;
48526;SDS011;34317;51.660;5.824;2023-07-13T07:09:33;16.63;;;9.43;;
48526;SDS011;34317;51.660;5.824;2023-07-13T07:12:00;22.08;;;8.88;;
48526;SDS011;34317;51.660;5.824;2023-07-13T07:14:41;18.80;;;9.50;;
48526;SDS011;34317;51.660;5.824;2023-07-13T07:17:09;20.05;;;9.82;;
48526;SDS011;34317;51.660;5.824;2023-07-13T07:19:37;21.30;;;9.52;;
48526;SDS011;34317;51.660;5.824;2023-07-13T07:22:05;19.13;;;8.65;;
48526;SDS011;34317;51.660;5.824;2023-07-13T07:24:33;21.70;;;9.63;;
48526;SDS011;34317;51.660;5.824;2023-07-13T07:27:00;20.38;;;9.23;;
48526;SDS011;34317;51.660;5.824;2023-07-13T07:29:30;20.92;;;9.23;;
48526;SDS011;34317;51.660;5.824;2023-07-13T07:32:00;17.40;;;9.00;;
48526;SDS011;34317;51.660;5.824;2023-07-13T07:34:44;18.95;;;9.30;;
48526;SDS011;34317;51.660;5.824;2023-07-13T07:37:12;17.33;;;8.60;;
48526;SDS011;34317;51.660;5.824;2023-07-13T07:39:43;19.58;;;9.77;;
48526;SDS011;34317;51.660;5.824;2023-07-13T07:42:31;18.75;;;9.32;;
48526;SDS011;34317;51.660;5.824;2023-07-13T07:44:59;18.08;;;9.68;;
48526;SDS011;34317;51.660;5.824;2023-07-13T07:47:28;20.52;;;9.00;;
48526;SDS011;34317;51.660;5.824;2023-07-13T07:49:55;17.30;;;8.38;;
48526;SDS011;34317;51.660;5.824;2023-07-13T07:52:22;17.30;;;9.40;;
48526;SDS011;34317;51.660;5.824;2023-07-13T07:54:50;17.75;;;8.93;;
48526;SDS011;34317;51.660;5.824;2023-07-13T07:57:20;17.63;;;8.48;;
48526;SDS011;34317;51.660;5.824;2023-07-13T07:59:50;24.33;;;8.77;;
48526;SDS011;34317;51.660;5.824;2023-07-13T08:02:20;20.80;;;9.02;;
48526;SDS011;34317;51.660;5.824;2023-07-13T08:04:50;18.85;;;8.75;;
48526;SDS011;34317;51.660;5.824;2023-07-13T08:07:20;19.23;;;8.80;;
48526;SDS011;34317;51.660;5.824;2023-07-13T08:09:47;19.80;;;8.52;;
48526;SDS011;34317;51.660;5.824;2023-07-13T08:12:19;17.50;;;8.70;;
48526;SDS011;34317;51.660;5.824;2023-07-13T08:15:06;13.70;;;7.82;;
48526;SDS011;34317;51.660;5.824;2023-07-13T08:17:36;19.92;;;8.95;;
48526;SDS011;34317;51.660;5.824;2023-07-13T08:20:04;15.57;;;8.32;;
48526;SDS011;34317;51.660;5.824;2023-07-13T08:22:32;15.90;;;8.13;;
48526;SDS011;34317;51.660;5.824;2023-07-13T08:24:59;16.55;;;8.60;;
48526;SDS011;34317;51.660;5.824;2023-07-13T08:27:27;15.13;;;8.43;;
48526;SDS011;34317;51.660;5.824;2023-07-13T08:29:55;17.73;;;8.30;;
48526;SDS011;34317;51.660;5.824;2023-07-13T08:32:23;15.65;;;7.97;;
48526;SDS011;34317;51.660;5.824;2023-07-13T08:34:50;18.67;;;8.40;;
48526;SDS011;34317;51.660;5.824;2023-07-13T08:37:18;16.38;;;7.72;;
48526;SDS011;34317;51.660;5.824;2023-07-13T08:39:46;14.73;;;6.80;;
48526;SDS011;34317;51.660;5.824;2023-07-13T08:44:51;13.30;;;6.88;;
48526;SDS011;34317;51.660;5.824;2023-07-13T08:47:39;13.60;;;7.18;;
48526;SDS011;34317;51.660;5.824;2023-07-13T08:50:12;16.75;;;7.05;;
48526;SDS011;34317;51.660;5.824;2023-07-13T08:52:42;10.40;;;6.38;;
48526;SDS011;34317;51.660;5.824;2023-07-13T08:57:44;13.38;;;5.50;;
48526;SDS011;34317;51.660;5.824;2023-07-13T09:00:15;12.32;;;5.75;;
48526;SDS011;34317;51.660;5.824;2023-07-13T09:02:48;14.32;;;6.05;;
48526;SDS011;34317;51.660;5.824;2023-07-13T09:08:09;8.60;;;5.10;;
48526;SDS011;34317;51.660;5.824;2023-07-13T09:13:43;9.60;;;4.82;;
48526;SDS011;34317;51.660;5.824;2023-07-13T09:16:20;11.90;;;5.93;;
48526;SDS011;34317;51.660;5.824;2023-07-13T09:18:49;15.30;;;6.43;;
48526;SDS011;34317;51.660;5.824;2023-07-13T09:21:30;10.77;;;6.10;;
48526;SDS011;34317;51.660;5.824;2023-07-13T09:24:03;9.48;;;4.85;;
48526;SDS011;34317;51.660;5.824;2023-07-13T09:26:51;9.38;;;4.60;;
48526;SDS011;34317;51.660;5.824;2023-07-13T09:29:26;10.07;;;5.25;;
48526;SDS011;34317;51.660;5.824;2023-07-13T09:31:57;7.93;;;4.72;;
48526;SDS011;34317;51.660;5.824;2023-07-13T09:34:27;6.13;;;4.70;;
48526;SDS011;34317;51.660;5.824;2023-07-13T09:36:57;9.18;;;5.10;;
48526;SDS011;34317;51.660;5.824;2023-07-13T09:39:28;11.80;;;4.68;;
48526;SDS011;34317;51.660;5.824;2023-07-13T09:44:39;8.18;;;4.63;;
48526;SDS011;34317;51.660;5.824;2023-07-13T09:47:21;9.15;;;5.00;;
48526;SDS011;34317;51.660;5.824;2023-07-13T09:49:58;8.38;;;4.65;;
48526;SDS011;34317;51.660;5.824;2023-07-13T09:52:39;5.93;;;3.90;;
48526;SDS011;34317;51.660;5.824;2023-07-13T09:55:34;9.70;;;4.25;;
48526;SDS011;34317;51.660;5.824;2023-07-13T10:01:03;10.02;;;4.25;;
48526;SDS011;34317;51.660;5.824;2023-07-13T10:03:36;8.05;;;3.83;;
48526;SDS011;34317;51.660;5.824;2023-07-13T10:06:16;7.30;;;3.50;;
48526;SDS011;34317;51.660;5.824;2023-07-13T10:08:45;9.23;;;4.50;;
48526;SDS011;34317;51.660;5.824;2023-07-13T10:11:20;11.15;;;4.00;;
48526;SDS011;34317;51.660;5.824;2023-07-13T10:16:25;8.23;;;4.25;;
48526;SDS011;34317;51.660;5.824;2023-07-13T10:19:11;6.20;;;3.88;;
48526;SDS011;34317;51.660;5.824;2023-07-13T10:21:49;7.20;;;4.00;;
48526;SDS011;34317;51.660;5.824;2023-07-13T10:24:38;8.38;;;3.80;;
48526;SDS011;34317;51.660;5.824;2023-07-13T10:27:13;7.82;;;4.18;;
48526;SDS011;34317;51.660;5.824;2023-07-13T10:29:46;7.63;;;4.20;;
48526;SDS011;34317;51.660;5.824;2023-07-13T10:32:17;5.93;;;3.40;;
48526;SDS011;34317;51.660;5.824;2023-07-13T10:34:49;10.13;;;4.78;;
48526;SDS011;34317;51.660;5.824;2023-07-13T10:37:20;7.00;;;3.88;;
48526;SDS011;34317;51.660;5.824;2023-07-13T10:39:52;7.55;;;3.40;;
48526;SDS011;34317;51.660;5.824;2023-07-13T10:42:35;6.40;;;3.45;;
48526;SDS011;34317;51.660;5.824;2023-07-13T10:45:13;5.38;;;4.15;;
48526;SDS011;34317;51.660;5.824;2023-07-13T10:47:41;8.05;;;4.35;;
48526;SDS011;34317;51.660;5.824;2023-07-13T10:50:14;5.68;;;3.72;;
48526;SDS011;34317;51.660;5.824;2023-07-13T10:52:48;6.75;;;3.30;;
48526;SDS011;34317;51.660;5.824;2023-07-13T10:58:22;5.10;;;3.00;;
48526;SDS011;34317;51.660;5.824;2023-07-13T11:06:12;6.28;;;3.08;;
48526;SDS011;34317;51.660;5.824;2023-07-13T11:18:48;9.27;;;3.00;;
48526;SDS011;34317;51.660;5.824;2023-07-13T11:21:18;6.45;;;2.80;;
48526;SDS011;34317;51.660;5.824;2023-07-13T11:26:44;3.92;;;2.22;;
48526;SDS011;34317;51.660;5.824;2023-07-13T11:31:52;7.65;;;2.83;;
48526;SDS011;34317;51.660;5.824;2023-07-13T11:34:27;4.43;;;2.63;;
48526;SDS011;34317;51.660;5.824;2023-07-13T11:36:58;6.32;;;3.08;;
48526;SDS011;34317;51.660;5.824;2023-07-13T11:39:30;4.03;;;2.63;;
48526;SDS011;34317;51.660;5.824;2023-07-13T11:42:01;4.45;;;2.50;;
48526;SDS011;34317;51.660;5.824;2023-07-13T11:44:33;5.72;;;2.65;;
48526;SDS011;34317;51.660;5.824;2023-07-13T11:47:08;6.38;;;2.83;;
48526;SDS011;34317;51.660;5.824;2023-07-13T11:49:44;5.20;;;2.90;;
48526;SDS011;34317;51.660;5.824;2023-07-13T11:52:19;6.65;;;3.58;;
48526;SDS011;34317;51.660;5.824;2023-07-13T11:55:00;6.72;;;3.30;;
48526;SDS011;34317;51.660;5.824;2023-07-13T11:57:29;6.65;;;3.65;;
48526;SDS011;34317;51.660;5.824;2023-07-13T12:00:02;9.73;;;4.18;;
48526;SDS011;34317;51.660;5.824;2023-07-13T12:02:39;7.50;;;4.32;;
48526;SDS011;34317;51.660;5.824;2023-07-13T12:05:11;4.65;;;3.10;;
48526;SDS011;34317;51.660;5.824;2023-07-13T12:07:40;7.00;;;2.90;;
48526;SDS011;34317;51.660;5.824;2023-07-13T12:12:36;5.45;;;2.78;;
48526;SDS011;34317;51.660;5.824;2023-07-13T12:15:07;7.13;;;3.22;;
48526;SDS011;34317;51.660;5.824;2023-07-13T12:17:35;5.10;;;2.80;;
48526;SDS011;34317;51.660;5.824;2023-07-13T12:20:04;4.25;;;3.03;;
48526;SDS011;34317;51.660;5.824;2023-07-13T12:22:46;4.88;;;3.63;;
48526;SDS011;34317;51.660;5.824;2023-07-13T12:25:15;7.35;;;4.40;;
48526;SDS011;34317;51.660;5.824;2023-07-13T12:27:48;7.70;;;4.57;;
48526;SDS011;34317;51.660;5.824;2023-07-13T12:30:27;11.40;;;4.93;;
48526;SDS011;34317;51.660;5.824;2023-07-13T12:33:02;8.68;;;5.18;;
48526;SDS011;34317;51.660;5.824;2023-07-13T12:35:42;9.48;;;5.07;;
48526;SDS011;34317;51.660;5.824;2023-07-13T12:38:13;9.55;;;5.85;;
48526;SDS011;34317;51.660;5.824;2023-07-13T12:40:41;10.57;;;5.75;;
48526;SDS011;34317;51.660;5.824;2023-07-13T12:43:11;9.25;;;6.55;;
48526;SDS011;34317;51.660;5.824;2023-07-13T12:45:54;8.13;;;6.50;;
48526;SDS011;34317;51.660;5.824;2023-07-13T12:48:23;8.18;;;6.88;;
48526;SDS011;34317;51.660;5.824;2023-07-13T12:51:08;9.43;;;6.78;;
48526;SDS011;34317;51.660;5.824;2023-07-13T12:53:40;8.70;;;6.80;;
48526;SDS011;34317;51.660;5.824;2023-07-13T12:56:13;8.45;;;5.50;;
48526;SDS011;34317;51.660;5.824;2023-07-13T12:58:56;8.48;;;5.22;;
